KPGA

Details ICAO KPGA (PGA)
Name PAGE MUNI
Region United States
Timezone America/Denver (UTC-6.0)
Plans Departing 17
Arriving 30
Stats Elevation 4,313 ft / 1,315 m (AMSL)
Location 36.927176° -111.448815°
Runways 2
Magnetic Variation 10.618° E
Sunrise 2018-05-24 12:13:02 UTC / 2018-05-24 06:13:02 Local
Sunset 2018-05-25 02:35:09 UTC / 2018-05-24 20:35:09 Local
Advertisement - Login to hide

Runways

ID Width Length Bearing (true) Bearing (mag) Surface Threshold Offset Overrun Length
07 100 ft / 30 m 2,196 ft / 669 m 82.10° 71.48° Asphalt 588 ft / 179 m 0 ft / 0 m
15 150 ft / 46 m 5,959 ft / 1,816 m 170.27° 159.65° Asphalt 0 ft / 0 m 0 ft / 0 m
25 100 ft / 30 m 2,196 ft / 669 m 262.10° 251.48° Asphalt 0 ft / 0 m 0 ft / 0 m
33 150 ft / 46 m 5,959 ft / 1,816 m 350.27° 339.65° Asphalt 0 ft / 0 m 0 ft / 0 m

Map

Weather


0- 5 10 15 20 25 30 35+ Temperature / ° C

Clouds and Precipitation
Forecast for 2018-05-25 00:00 UTC. Updated 3 hours ago

Ground ~20,000 ft ~40,000 ft Winds

METAR

KPGA 250053Z AUTO 03008KT 10SM CLR 32/M08 A2997 RMK AO2 SLP086 T03171078 TSNO

TAF

KPGA 242333Z 2500/2524 VRB05KT P6SM SKC FM252030 20010G20KT P6SM SKC

Frequencies

Recorded 120.62 MHz ASOS
Unicom 122.80 MHz CTAF/UNICOM
Warning: Do not use this data for real-world aviation or navigation. No guarantee of current accuracy is given.